CA-0480 weather

Williams Lake / Pioneer Heliport
British Columbia, Canada

Public forecast

Using degrees Celsius for public forecast. Weather courtesy of forecast.io.

Closest aviation weather report (METAR) to Williams Lake / Pioneer Heliport

Closest report is Williams Lake Airport, 5.3 nm (9.8 km) NE. Retrieved 2019/10/18 12:00 UTC (26 minutes ago):

CYWL 181200Z 13009G15KT 15SM FEW140 SCT220 03/M01 A2945 RMK AC2CI2 SLP991

Closest aviation forecast (TAF) to Williams Lake / Pioneer Heliport

Closest forecast is Williams Lake Airport, 5.3 nm (9.8 km) NE. Retrieved 2019/10/18 13:39 UTC (0 seconds ago):

TAF CYWL 181238Z 1813/1901 13010KT P6SM FEW070 SCT140 BECMG 1814/1816 18010KT RMK NXT FCST BY 181900Z